Terminal Aerodrome Forecast
Issued by NWS Goodland, KS

Home | Current Version | Previous Version | Text Only | Print | Product List | Glossary On
Versions: 1 2 3 4 5 6 7 8 9 10 11
000
FTUS43 KGLD 251722
TAFGLD
TAF
KGLD 251722Z 2518/2618 VRB05KT P6SM SKC
     FM252000 14011G18KT P6SM SKC
     FM260000 15007KT P6SM SKC
     FM261000 VRB05KT 6SM BR SCT015
     FM261400 33013G20KT P6SM SCT200=

USA.gov is the U.S. government's official web portal to all federal, state and local government web resources and services.